This is the latest recevied weather packets stored in our database for station/object KC8ZBC. If no packets are shown the sender has not sent any weather packets the latest 10 day(s).
| Time | Temp. | Humidity | Pressure | Rain* | Wind** | Luminosity | Snow |
|---|---|---|---|---|---|---|---|
| 1777947113 | 17.78° C | 71% | 975 hPa | 0 mm | - | 0 W/m² | - |
| 1777946809 | 17.78° C | 71% | 975 hPa | 0 mm | - | 0 W/m² | - |
| 1777946505 | 17.78° C | 72% | 975.1 hPa | 0 mm | - | 0 W/m² | - |
| 1777946203 | 17.78° C | 72% | 975.1 hPa | 0 mm | - | 0 W/m² | - |
| 1777945899 | 17.78° C | 72% | 975 hPa | 0 mm | - | 0 W/m² | - |
| 1777945596 | 17.78° C | 73% | 975 hPa | 0 mm | - | 0 W/m² | - |
| 1777945293 | 17.78° C | 73% | 975 hPa | 0 mm | - | 0 W/m² | - |
| 1777944991 | 17.22° C | 74% | 975.2 hPa | 0 mm | - | 0 W/m² | - |
| 1777944687 | 17.22° C | 76% | 975.1 hPa | 0 mm | - | 0 W/m² | - |
| 1777944386 | 16.67° C | 77% | 975.1 hPa | 0 mm | - | 0 W/m² | - |
| 1777944082 | 16.67° C | 76% | 975 hPa | 0 mm | - | 0 W/m² | - |
| 1777943778 | 17.22° C | 76% | 975.1 hPa | 0 mm | - | 0 W/m² | - |
| 1777943475 | 17.22° C | 75% | 974.9 hPa | 0 mm | - | 0 W/m² | - |
| 1777943170 | 17.22° C | 74% | 974.8 hPa | 0 mm | - | 0 W/m² | - |
| 1777942868 | 17.78° C | 73% | 974.8 hPa | 0 mm | - | 0 W/m² | - |
| 1777942564 | 17.78° C | 72% | 974.8 hPa | 0 mm | - | 0 W/m² | - |
| 1777942261 | 17.78° C | 70% | 974.5 hPa | 0 mm | - | 0 W/m² | - |
| 1777941958 | 18.33° C | 69% | 974.7 hPa | 0 mm | - | 0 W/m² | - |
| 1777941655 | 18.89° C | 66% | 974.7 hPa | 0 mm | - | 0 W/m² | - |
| 1777941352 | 18.89° C | 64% | 974.5 hPa | 0 mm | - | 0 W/m² | - |
| 1777941049 | 19.44° C | 61% | 974.7 hPa | 0 mm | - | 1 W/m² | - |
| 1777940750 | 20° C | 59% | 974.4 hPa | 0 mm | - | 5 W/m² | - |
| 1777940449 | 21.11° C | 55% | 974.6 hPa | 0 mm | - | 4 W/m² | - |
| 1777940146 | 21.67° C | 50% | 974.3 hPa | 0 mm | - | 5 W/m² | - |
| 1777939843 | 22.22° C | 48% | 974 hPa | 0 mm | - | 10 W/m² | - |
* Rain latest hour (hover to see other rain measurements)
** Current wind speed in m/s (hover to see current wind gust speed)